createdAt,value
2023-02-06T00:01:05.333Z,89618.36
2023-02-06T00:09:36.513Z,89571.76
2023-02-06T00:17:59.374Z,89509.72
2023-02-06T00:26:23.194Z,89468.66
2023-02-06T00:34:46.208Z,89436.98
2023-02-06T00:43:09.333Z,89463.20
2023-02-06T00:51:32.501Z,89520.09
2023-02-06T00:59:55.382Z,89577.44
2023-02-06T01:08:18.319Z,89620.15
2023-02-06T01:16:41.886Z,89633.14
2023-02-06T01:25:05.441Z,89633.23
2023-02-06T01:33:29.370Z,89641.27
2023-02-06T01:41:52.287Z,89638.05
2023-02-06T01:50:15.748Z,89630.33
2023-02-06T01:58:44.695Z,89597.95
2023-02-06T02:07:25.173Z,89542.14
2023-02-06T02:16:00.923Z,89446.15
2023-02-06T02:24:45.459Z,89373.03
2023-02-06T02:33:39.834Z,89302.66
2023-02-06T02:42:21.176Z,89281.88
2023-02-06T02:50:44.465Z,89276.46
2023-02-06T02:59:13.297Z,89286.23
2023-02-06T03:07:54.259Z,89335.48
2023-02-06T03:16:24.197Z,89383.70
2023-02-06T03:24:47.782Z,89434.13
2023-02-06T03:33:15.484Z,89466.28
2023-02-06T03:41:40.028Z,89497.83
2023-02-06T03:50:03.438Z,89511.11
2023-02-06T03:58:26.695Z,89553.83
2023-02-06T04:06:49.659Z,89581.42
2023-02-06T04:15:12.634Z,89587.16
2023-02-06T04:23:35.671Z,89600.56
2023-02-06T04:32:02.277Z,89614.98
2023-02-06T04:40:25.392Z,89613.65
2023-02-06T04:48:48.332Z,89592.95
2023-02-06T04:57:11.193Z,89538.08
2023-02-06T05:05:34.660Z,89494.04
2023-02-06T05:13:57.920Z,89441.90
2023-02-06T05:22:20.988Z,89421.11
2023-02-06T05:30:44.305Z,89437.61
2023-02-06T05:39:07.373Z,89423.77
2023-02-06T05:47:30.388Z,89380.44
2023-02-06T05:55:53.310Z,89338.77
2023-02-06T06:04:16.228Z,89330.02
2023-02-06T06:12:39.192Z,89357.35
2023-02-06T06:21:02.282Z,89412.67
2023-02-06T06:29:25.831Z,89436.90
2023-02-06T06:37:48.727Z,89424.14
2023-02-06T06:46:11.651Z,89479.88
2023-02-06T06:54:34.633Z,89515.57
2023-02-06T07:02:57.559Z,89547.27
2023-02-06T07:11:20.676Z,89542.05
2023-02-06T07:19:48.253Z,89534.02
2023-02-06T07:28:11.319Z,89512.23
2023-02-06T07:36:34.344Z,89510.55
2023-02-06T07:44:57.232Z,89526.00
2023-02-06T07:53:20.476Z,89569.01
2023-02-06T08:01:43.458Z,89661.52
2023-02-06T08:10:06.766Z,89811.22
2023-02-06T08:18:29.653Z,89956.85
2023-02-06T08:26:52.618Z,90020.09
2023-02-06T08:35:15.755Z,89995.52
2023-02-06T08:43:38.680Z,89957.92
2023-02-06T08:52:01.777Z,90029.59
2023-02-06T09:00:24.793Z,90152.71
2023-02-06T09:08:48.301Z,90215.83
2023-02-06T09:17:11.354Z,90284.77
2023-02-06T09:25:35.853Z,90378.08
2023-02-06T09:34:02.711Z,90459.73
2023-02-06T09:42:34.737Z,90516.48
2023-02-06T09:51:19.109Z,90530.85
2023-02-06T09:59:47.985Z,90525.23
2023-02-06T10:08:21.961Z,90517.52
2023-02-06T10:17:02.603Z,90507.89
2023-02-06T10:25:37.017Z,90493.32
2023-02-06T10:34:39.204Z,90515.45
2023-02-06T10:43:22.327Z,90577.36
2023-02-06T10:51:52.887Z,90613.41
2023-02-06T11:00:26.550Z,90644.57
2023-02-06T11:08:50.069Z,90709.19
2023-02-06T11:17:15.676Z,90803.66
2023-02-06T11:25:39.344Z,90857.94
2023-02-06T11:34:04.516Z,90859.84
2023-02-06T11:42:28.644Z,90871.96
2023-02-06T11:50:54.957Z,90910.23
2023-02-06T11:59:23.555Z,90931.08
2023-02-06T12:07:55.283Z,90936.70
2023-02-06T12:16:23.604Z,90980.53
2023-02-06T12:24:49.597Z,91018.30
2023-02-06T12:33:33.419Z,91051.14
2023-02-06T12:42:03.107Z,91099.02
2023-02-06T12:50:38.919Z,91137.73
2023-02-06T12:59:09.678Z,91177.31
2023-02-06T13:07:49.098Z,91217.95
2023-02-06T13:16:12.734Z,91233.84
2023-02-06T13:24:41.031Z,91247.86
2023-02-06T13:33:25.211Z,91284.40
2023-02-06T13:41:48.968Z,91303.67
2023-02-06T13:50:50.487Z,91314.83
2023-02-06T13:59:20.261Z,91340.23
2023-02-06T14:08:07.403Z,91353.67
2023-02-06T14:16:49.798Z,91345.19
2023-02-06T14:25:42.781Z,91339.46
2023-02-06T14:34:57.252Z,91318.11
2023-02-06T14:43:26.103Z,91287.17
2023-02-06T14:51:51.483Z,91226.66
2023-02-06T15:00:19.844Z,91143.71
2023-02-06T15:08:50.152Z,91038.08
2023-02-06T15:17:20.553Z,90913.09
2023-02-06T15:26:08.701Z,90823.27
2023-02-06T15:34:32.668Z,90733.27
2023-02-06T15:42:55.852Z,90649.23
2023-02-06T15:51:38.465Z,90603.50
2023-02-06T16:00:09.821Z,90583.28
2023-02-06T16:08:39.774Z,90532.92
2023-02-06T16:17:29.443Z,90445.41
2023-02-06T16:26:13.519Z,90333.58
2023-02-06T16:34:42.398Z,90195.27
2023-02-06T16:43:11.109Z,90086.27
2023-02-06T16:51:34.087Z,90055.98
2023-02-06T16:59:57.975Z,90071.91
2023-02-06T17:08:23.762Z,90089.45
2023-02-06T17:16:46.707Z,90055.37
2023-02-06T17:25:09.752Z,89996.80
2023-02-06T17:33:33.200Z,90001.92
2023-02-06T17:41:56.240Z,90057.52
2023-02-06T17:50:21.700Z,90077.63
2023-02-06T17:58:44.841Z,90035.02
2023-02-06T18:07:07.873Z,89956.02
2023-02-06T18:15:32.027Z,89859.39
2023-02-06T18:23:55.525Z,89767.85
2023-02-06T18:32:19.212Z,89680.27
2023-02-06T18:40:45.625Z,89662.25
2023-02-06T18:49:08.649Z,89703.67
2023-02-06T18:57:31.558Z,89722.45
2023-02-06T19:05:54.464Z,89709.65
2023-02-06T19:14:22.695Z,89664.66
2023-02-06T19:22:45.992Z,89621.13
2023-02-06T19:31:10.907Z,89567.77
2023-02-06T19:39:35.977Z,89534.58
2023-02-06T19:48:11.911Z,89554.52
2023-02-06T19:56:39.218Z,89570.54
2023-02-06T20:05:02.758Z,89567.92
2023-02-06T20:13:25.943Z,89514.19
2023-02-06T20:21:52.462Z,89432.08
2023-02-06T20:30:15.728Z,89366.23
2023-02-06T20:38:39.137Z,89270.85
2023-02-06T20:47:18.730Z,89177.82
2023-02-06T20:55:44.219Z,89107.23
2023-02-06T21:04:12.318Z,89075.98
2023-02-06T21:12:35.342Z,89071.23
2023-02-06T21:21:07.360Z,89047.73
2023-02-06T21:29:30.379Z,89052.02
2023-02-06T21:37:53.368Z,89107.19
2023-02-06T21:46:16.444Z,89142.27
2023-02-06T21:54:39.370Z,89181.29
2023-02-06T22:03:02.700Z,89161.05
2023-02-06T22:11:30.156Z,89099.19
2023-02-06T22:19:54.242Z,89091.42
2023-02-06T22:28:17.182Z,89079.91
2023-02-06T22:36:40.228Z,89077.42
2023-02-06T22:45:03.389Z,89048.71
2023-02-06T22:53:32.589Z,89064.12
2023-02-06T23:01:58.298Z,89060.19
2023-02-06T23:10:21.712Z,89021.28
2023-02-06T23:18:44.754Z,88991.12
2023-02-06T23:27:07.692Z,88998.42
2023-02-06T23:35:30.723Z,88972.73
2023-02-06T23:43:58.720Z,88936.20
2023-02-06T23:52:22.500Z,88935.59
